createdAt,value
2023-04-15T00:01:05.980Z,2.50
2023-04-15T00:03:34.556Z,1.73
2023-04-15T00:06:02.319Z,2.28
2023-04-15T00:08:29.939Z,1.90
2023-04-15T00:10:56.724Z,1.50
2023-04-15T00:13:23.626Z,2.45
2023-04-15T00:15:50.276Z,4.60
2023-04-15T00:18:16.993Z,1.73
2023-04-15T00:20:43.644Z,2.58
2023-04-15T00:23:10.322Z,2.40
2023-04-15T00:25:36.998Z,2.65
2023-04-15T00:28:03.958Z,1.52
2023-04-15T00:30:31.329Z,1.80
2023-04-15T00:32:58.051Z,3.13
2023-04-15T00:35:24.835Z,3.45
2023-04-15T00:37:51.661Z,4.38
2023-04-15T00:40:20.927Z,1.58
2023-04-15T00:42:47.837Z,1.50
2023-04-15T00:45:14.557Z,2.72
2023-04-15T00:47:44.995Z,2.00
2023-04-15T00:50:12.850Z,1.75
2023-04-15T00:52:40.626Z,4.50
2023-04-15T00:55:08.670Z,2.55
2023-04-15T00:57:36.434Z,1.98
2023-04-15T01:00:05.633Z,3.47
2023-04-15T01:02:33.270Z,1.20
2023-04-15T01:05:02.538Z,2.33
2023-04-15T01:07:29.310Z,5.10
2023-04-15T01:09:56.842Z,2.08
2023-04-15T01:12:26.344Z,2.53
2023-04-15T01:14:55.095Z,2.40
2023-04-15T01:17:22.094Z,2.15
2023-04-15T01:19:48.878Z,4.03
2023-04-15T01:22:16.121Z,6.28
2023-04-15T01:24:52.157Z,6.18
2023-04-15T01:27:20.603Z,3.60
2023-04-15T01:29:48.168Z,2.08
2023-04-15T01:32:15.578Z,1.63
2023-04-15T01:34:42.268Z,1.92
2023-04-15T01:37:08.925Z,1.40
2023-04-15T01:39:36.038Z,3.53
2023-04-15T01:42:03.243Z,2.25
2023-04-15T01:44:29.932Z,2.25
2023-04-15T01:46:56.658Z,1.98
2023-04-15T01:49:23.956Z,1.73
2023-04-15T01:51:50.656Z,1.38
2023-04-15T01:54:17.351Z,2.03
2023-04-15T01:56:44.642Z,2.85
2023-04-15T01:59:11.375Z,3.55
2023-04-15T02:01:38.830Z,2.60
2023-04-15T02:04:05.713Z,1.83
2023-04-15T02:06:33.264Z,2.10
2023-04-15T02:09:00.252Z,2.13
2023-04-15T02:11:27.223Z,1.95
2023-04-15T02:13:53.913Z,2.63
2023-04-15T02:16:21.262Z,2.28
2023-04-15T02:18:48.221Z,3.17
2023-04-15T02:21:15.075Z,4.50
2023-04-15T02:23:41.863Z,2.60
2023-04-15T02:26:08.581Z,2.35
2023-04-15T02:28:35.768Z,3.90
2023-04-15T02:31:06.476Z,1.45
2023-04-15T02:33:33.425Z,1.52
2023-04-15T02:36:01.061Z,2.00
2023-04-15T02:38:28.521Z,4.05
2023-04-15T02:40:55.463Z,4.07
2023-04-15T02:43:22.258Z,3.10
2023-04-15T02:45:51.231Z,2.15
2023-04-15T02:48:19.733Z,3.58
2023-04-15T02:50:47.806Z,1.70
2023-04-15T02:53:15.522Z,2.05
2023-04-15T02:55:42.903Z,3.55
2023-04-15T02:58:09.788Z,3.10
2023-04-15T03:00:36.753Z,3.50
2023-04-15T03:03:06.102Z,3.22
2023-04-15T03:05:33.195Z,3.55
2023-04-15T03:08:01.409Z,4.18
2023-04-15T03:10:28.430Z,2.15
2023-04-15T03:12:55.116Z,3.25
2023-04-15T03:15:23.559Z,3.38
2023-04-15T03:17:52.650Z,2.78
2023-04-15T03:20:19.766Z,2.78
2023-04-15T03:22:47.978Z,1.75
2023-04-15T03:25:14.752Z,3.05
2023-04-15T03:27:42.034Z,1.85
2023-04-15T03:30:09.485Z,1.65
2023-04-15T03:32:38.306Z,2.53
2023-04-15T03:35:06.798Z,2.75
2023-04-15T03:37:33.451Z,1.80
2023-04-15T03:40:00.487Z,2.63
2023-04-15T03:42:27.153Z,2.38
2023-04-15T03:44:53.875Z,3.70
2023-04-15T03:47:20.936Z,4.07
2023-04-15T03:49:47.661Z,1.58
2023-04-15T03:52:14.409Z,1.95
2023-04-15T03:54:41.391Z,2.63
2023-04-15T03:57:08.108Z,1.80
2023-04-15T03:59:34.783Z,2.40
2023-04-15T04:02:01.629Z,2.75
2023-04-15T04:04:28.478Z,3.03
2023-04-15T04:06:55.417Z,2.20
2023-04-15T04:09:22.327Z,1.55
2023-04-15T04:11:49.073Z,2.40
2023-04-15T04:14:15.891Z,3.03
2023-04-15T04:16:42.585Z,3.28
2023-04-15T04:19:09.276Z,1.88
2023-04-15T04:21:36.525Z,1.42
2023-04-15T04:24:03.397Z,1.20
2023-04-15T04:26:30.075Z,1.77
2023-04-15T04:28:56.768Z,1.15
2023-04-15T04:31:23.478Z,2.05
2023-04-15T04:33:50.448Z,1.90
2023-04-15T04:36:17.097Z,1.50
2023-04-15T04:38:43.865Z,1.95
2023-04-15T04:41:10.634Z,1.65
2023-04-15T04:43:37.379Z,1.20
2023-04-15T04:46:04.091Z,2.75
2023-04-15T04:48:31.897Z,2.00
2023-04-15T04:50:59.024Z,1.90
2023-04-15T04:53:25.775Z,1.30
2023-04-15T04:55:52.518Z,1.85
2023-04-15T04:58:19.428Z,6.55
2023-04-15T05:00:46.532Z,4.32
2023-04-15T05:03:13.398Z,5.07
2023-04-15T05:05:41.107Z,3.20
2023-04-15T05:08:07.968Z,1.90
2023-04-15T05:10:34.861Z,2.20
2023-04-15T05:13:01.641Z,6.03
2023-04-15T05:15:28.485Z,5.13
2023-04-15T05:17:55.422Z,2.30
2023-04-15T05:20:22.289Z,1.08
2023-04-15T05:22:49.040Z,1.60
2023-04-15T05:25:16.295Z,5.22
2023-04-15T05:27:43.100Z,2.75
2023-04-15T05:30:12.092Z,3.97
2023-04-15T05:32:40.392Z,4.55
2023-04-15T05:35:08.023Z,7.55
2023-04-15T05:37:34.746Z,6.32
2023-04-15T05:40:01.516Z,5.57
2023-04-15T05:42:28.244Z,4.43
2023-04-15T05:44:54.959Z,3.28
2023-04-15T05:47:21.757Z,2.65
2023-04-15T05:49:48.467Z,3.03
2023-04-15T05:52:15.455Z,3.58
2023-04-15T05:54:42.132Z,3.35
2023-04-15T05:57:08.825Z,10.00
2023-04-15T05:59:35.572Z,9.77
2023-04-15T06:02:02.590Z,11.38
2023-04-15T06:04:29.494Z,7.68
2023-04-15T06:06:56.304Z,5.63
2023-04-15T06:09:22.982Z,3.15
2023-04-15T06:11:49.706Z,1.38
2023-04-15T06:14:16.846Z,4.05
2023-04-15T06:16:43.558Z,3.20
2023-04-15T06:19:10.859Z,1.00
2023-04-15T06:21:37.804Z,2.70
2023-04-15T06:24:04.681Z,2.35
2023-04-15T06:26:31.479Z,2.88
2023-04-15T06:28:58.220Z,15.18
2023-04-15T06:31:24.921Z,11.20
2023-04-15T06:33:51.885Z,7.43
2023-04-15T06:36:19.358Z,4.82
2023-04-15T06:38:46.072Z,5.88
2023-04-15T06:41:12.961Z,6.78
2023-04-15T06:43:40.196Z,7.43
2023-04-15T06:46:06.999Z,8.25
2023-04-15T06:48:33.899Z,5.97
2023-04-15T06:51:00.608Z,8.75
2023-04-15T06:53:28.073Z,7.07
2023-04-15T06:55:55.055Z,7.90
2023-04-15T06:58:22.124Z,10.65
2023-04-15T07:00:49.067Z,9.18
2023-04-15T07:03:16.147Z,7.18
2023-04-15T07:05:43.387Z,6.60
2023-04-15T07:08:10.231Z,2.55
2023-04-15T07:10:37.093Z,4.63
2023-04-15T07:13:04.592Z,3.05
2023-04-15T07:15:31.299Z,1.77
2023-04-15T07:17:58.182Z,1.30
2023-04-15T07:20:24.930Z,2.38
2023-04-15T07:22:51.737Z,0.77
2023-04-15T07:25:18.942Z,1.92
2023-04-15T07:27:45.873Z,0.88
2023-04-15T07:30:13.217Z,1.75
2023-04-15T07:32:40.537Z,2.22
2023-04-15T07:35:07.793Z,5.70
2023-04-15T07:37:34.526Z,1.60
2023-04-15T07:40:01.812Z,1.25
2023-04-15T07:42:29.278Z,2.90
2023-04-15T07:44:56.589Z,1.90
2023-04-15T07:47:23.366Z,2.17
2023-04-15T07:49:51.450Z,2.35
2023-04-15T07:52:18.851Z,1.60
2023-04-15T07:54:45.892Z,1.10
2023-04-15T07:57:12.564Z,1.73
2023-04-15T07:59:39.486Z,2.50
2023-04-15T08:02:06.247Z,3.13
2023-04-15T08:04:34.165Z,1.75
2023-04-15T08:07:01.082Z,2.92
2023-04-15T08:09:27.769Z,1.48
2023-04-15T08:11:54.590Z,1.88
2023-04-15T08:14:21.604Z,1.42
2023-04-15T08:16:48.495Z,1.00
2023-04-15T08:19:15.296Z,2.97
2023-04-15T08:21:42.067Z,2.63
2023-04-15T08:24:08.825Z,0.85
2023-04-15T08:26:35.763Z,2.67
2023-04-15T08:29:02.851Z,1.52
2023-04-15T08:31:30.618Z,1.55
2023-04-15T08:33:57.845Z,1.85
2023-04-15T08:36:24.536Z,1.35
2023-04-15T08:38:51.233Z,2.05
2023-04-15T08:41:27.157Z,1.08
2023-04-15T08:44:05.339Z,5.50
2023-04-15T08:46:34.744Z,3.03
2023-04-15T08:49:04.845Z,2.00
2023-04-15T08:51:33.612Z,1.50
2023-04-15T08:54:01.501Z,2.60
2023-04-15T08:56:30.888Z,1.90
2023-04-15T08:58:57.838Z,1.95
2023-04-15T09:01:25.505Z,2.33
2023-04-15T09:03:54.762Z,2.25
2023-04-15T09:06:22.939Z,2.83
2023-04-15T09:08:50.525Z,3.47
2023-04-15T09:11:20.031Z,2.72
2023-04-15T09:13:47.064Z,3.20
2023-04-15T09:16:14.298Z,1.75
2023-04-15T09:18:41.168Z,1.95
2023-04-15T09:21:11.207Z,3.08
2023-04-15T09:23:39.850Z,1.35
2023-04-15T09:26:07.106Z,3.78
2023-04-15T09:28:40.958Z,2.35
2023-04-15T09:31:07.846Z,3.28
2023-04-15T09:33:34.709Z,5.70
2023-04-15T09:36:05.059Z,5.38
2023-04-15T09:38:32.435Z,3.65
2023-04-15T09:40:59.366Z,2.63
2023-04-15T09:43:40.000Z,3.80
2023-04-15T09:46:07.031Z,1.65
2023-04-15T09:48:33.828Z,2.00
2023-04-15T09:51:01.722Z,1.60
2023-04-15T09:53:30.572Z,3.45
2023-04-15T09:56:02.980Z,4.13
2023-04-15T09:58:31.724Z,4.63
2023-04-15T10:00:59.790Z,1.63
2023-04-15T10:03:29.621Z,4.10
2023-04-15T10:05:58.236Z,3.13
2023-04-15T10:08:30.868Z,4.18
2023-04-15T10:13:25.896Z,1.25
2023-04-15T10:15:58.811Z,2.35
2023-04-15T10:18:31.843Z,3.88
2023-04-15T10:21:00.751Z,3.45
2023-04-15T10:23:28.047Z,3.25
2023-04-15T10:25:55.330Z,3.47
2023-04-15T10:28:25.318Z,3.75
2023-04-15T10:30:53.506Z,3.53
2023-04-15T10:33:22.837Z,3.03
2023-04-15T10:35:51.656Z,6.00
2023-04-15T10:38:33.874Z,3.25
2023-04-15T10:41:27.865Z,3.47
2023-04-15T10:43:55.805Z,3.92
2023-04-15T10:46:43.865Z,2.47
2023-04-15T10:49:16.274Z,3.72
2023-04-15T10:51:53.569Z,2.28
2023-04-15T10:54:26.439Z,2.25
2023-04-15T10:57:09.209Z,3.85
2023-04-15T11:02:06.013Z,2.50
2023-04-15T11:04:57.946Z,3.95
2023-04-15T11:07:50.857Z,3.72
2023-04-15T11:10:20.998Z,2.25
2023-04-15T11:12:52.163Z,3.58
2023-04-15T11:15:41.047Z,2.50
2023-04-15T11:18:14.854Z,2.45
2023-04-15T11:20:45.038Z,3.83
2023-04-15T11:23:14.730Z,2.40
2023-04-15T11:25:43.275Z,1.00
2023-04-15T11:28:11.956Z,1.50
2023-04-15T11:30:40.240Z,1.40
2023-04-15T11:33:09.354Z,2.83
2023-04-15T11:35:36.566Z,3.70
2023-04-15T11:38:11.992Z,3.65
2023-04-15T11:40:39.627Z,1.83
2023-04-15T11:43:21.527Z,2.17
2023-04-15T11:45:53.872Z,5.43
2023-04-15T11:48:32.833Z,1.75
2023-04-15T11:51:09.448Z,2.13
2023-04-15T11:53:50.451Z,1.75
2023-04-15T11:56:26.120Z,4.95
2023-04-15T11:58:57.057Z,3.88
2023-04-15T12:01:41.254Z,1.83
2023-04-15T12:04:17.057Z,2.40
2023-04-15T12:06:43.962Z,1.88
2023-04-15T12:09:15.654Z,3.03
2023-04-15T12:11:48.213Z,1.43
2023-04-15T12:16:49.465Z,0.63
2023-04-15T12:22:15.676Z,3.33
2023-04-15T12:24:44.321Z,1.55
2023-04-15T12:27:15.920Z,1.52
2023-04-15T12:29:43.229Z,1.50
2023-04-15T12:32:15.089Z,1.70
2023-04-15T12:34:50.313Z,2.83
2023-04-15T12:37:17.638Z,3.00
2023-04-15T12:39:48.735Z,3.15
2023-04-15T12:42:16.334Z,4.03
2023-04-15T12:44:43.109Z,3.58
2023-04-15T12:47:11.292Z,3.78
2023-04-15T12:49:38.125Z,4.68
2023-04-15T12:52:05.185Z,3.00
2023-04-15T12:54:32.259Z,2.17
2023-04-15T12:56:59.856Z,3.22
2023-04-15T12:59:26.959Z,3.15
2023-04-15T13:01:54.623Z,4.45
2023-04-15T13:04:22.093Z,4.35
2023-04-15T13:06:49.416Z,2.65
2023-04-15T13:09:16.226Z,4.63
2023-04-15T13:11:43.244Z,5.85
2023-04-15T13:14:12.846Z,7.70
2023-04-15T13:16:39.850Z,8.75
2023-04-15T13:19:06.657Z,11.75
2023-04-15T13:21:35.595Z,10.18
2023-04-15T13:24:03.835Z,12.27
2023-04-15T13:26:31.548Z,18.20
2023-04-15T13:28:58.298Z,9.88
2023-04-15T13:31:25.104Z,4.78
2023-04-15T13:33:51.796Z,4.50
2023-04-15T13:36:18.570Z,16.23
2023-04-15T13:38:45.258Z,6.70
2023-04-15T13:41:11.916Z,6.65
2023-04-15T13:43:38.575Z,12.98
2023-04-15T13:46:05.523Z,4.82
2023-04-15T13:48:32.262Z,19.23
2023-04-15T13:50:58.941Z,7.68
2023-04-15T13:53:37.627Z,5.75
2023-04-15T13:56:09.303Z,7.90
2023-04-15T13:58:37.306Z,7.75
2023-04-15T14:01:05.795Z,18.85
2023-04-15T14:03:33.754Z,11.98
2023-04-15T14:06:00.983Z,7.32
2023-04-15T14:08:27.662Z,8.05
2023-04-15T14:10:54.332Z,5.50
2023-04-15T14:13:21.012Z,4.63
2023-04-15T14:15:47.696Z,6.57
2023-04-15T14:18:14.501Z,6.97
2023-04-15T14:20:41.204Z,5.10
2023-04-15T14:23:07.941Z,18.65
2023-04-15T14:25:34.646Z,56.80
2023-04-15T14:28:03.242Z,10.23
2023-04-15T14:30:30.190Z,4.85
2023-04-15T14:32:56.925Z,6.78
2023-04-15T14:35:26.384Z,4.28
2023-04-15T14:37:53.998Z,3.75
2023-04-15T14:40:20.737Z,4.43
2023-04-15T14:42:47.490Z,3.80
2023-04-15T14:45:14.259Z,2.67
2023-04-15T14:47:41.190Z,4.72
2023-04-15T14:50:08.439Z,4.38
2023-04-15T14:52:38.768Z,4.97
2023-04-15T14:55:07.301Z,3.60
2023-04-15T14:57:34.058Z,5.70
2023-04-15T15:00:00.750Z,7.35
2023-04-15T15:02:38.432Z,4.10
2023-04-15T15:05:07.228Z,4.82
2023-04-15T15:07:33.982Z,6.30
2023-04-15T15:10:00.801Z,8.43
2023-04-15T15:12:27.455Z,10.25
2023-04-15T15:14:55.999Z,6.90
2023-04-15T15:17:22.844Z,6.13
2023-04-15T15:19:49.617Z,7.70
2023-04-15T15:22:17.538Z,5.18
2023-04-15T15:24:45.275Z,3.80
2023-04-15T15:27:12.041Z,3.92
2023-04-15T15:29:38.978Z,3.90
2023-04-15T15:32:05.804Z,6.43
2023-04-15T15:34:32.540Z,3.45
2023-04-15T15:37:00.741Z,5.03
2023-04-15T15:39:27.987Z,4.70
2023-04-15T15:41:55.084Z,5.28
2023-04-15T15:44:21.859Z,6.22
2023-04-15T15:46:49.965Z,9.98
2023-04-15T15:49:16.827Z,9.15
2023-04-15T15:51:43.526Z,9.95
2023-04-15T15:54:10.437Z,7.05
2023-04-15T15:56:39.260Z,5.65
2023-04-15T15:59:06.235Z,6.95
2023-04-15T16:01:33.263Z,7.05
2023-04-15T16:04:00.791Z,7.55
2023-04-15T16:06:28.132Z,7.05
2023-04-15T16:08:55.116Z,6.28
2023-04-15T16:11:21.816Z,5.82
2023-04-15T16:13:48.526Z,7.80
2023-04-15T16:16:15.487Z,7.40
2023-04-15T16:18:42.244Z,8.20
2023-04-15T16:21:09.135Z,7.85
2023-04-15T16:23:36.683Z,10.35
2023-04-15T16:26:03.642Z,8.55
2023-04-15T16:28:30.333Z,7.53
2023-04-15T16:30:57.164Z,11.02
2023-04-15T16:33:24.137Z,8.68
2023-04-15T16:35:51.485Z,7.82
2023-04-15T16:38:18.295Z,7.63
2023-04-15T16:40:45.643Z,9.38
2023-04-15T16:43:12.335Z,7.25
2023-04-15T16:45:39.192Z,9.43
2023-04-15T16:48:06.168Z,10.07
2023-04-15T16:50:32.946Z,10.80
2023-04-15T16:52:59.614Z,7.93
2023-04-15T16:55:26.670Z,11.32
2023-04-15T16:58:01.642Z,7.50
2023-04-15T17:00:31.317Z,7.30
2023-04-15T17:02:58.830Z,7.63
2023-04-15T17:05:27.488Z,9.30
2023-04-15T17:07:54.758Z,7.47
2023-04-15T17:10:21.500Z,7.90
2023-04-15T17:12:49.751Z,6.72
2023-04-15T17:15:16.506Z,7.45
2023-04-15T17:17:43.298Z,8.68
2023-04-15T17:20:11.082Z,8.05
2023-04-15T17:22:37.938Z,11.88
2023-04-15T17:25:05.131Z,9.70
2023-04-15T17:27:31.802Z,7.63
2023-04-15T17:29:58.481Z,7.22
2023-04-15T17:32:31.457Z,7.47
2023-04-15T17:34:58.361Z,7.38
2023-04-15T17:37:25.410Z,8.75
2023-04-15T17:39:52.455Z,8.90
2023-04-15T17:42:19.190Z,11.32
2023-04-15T17:44:46.111Z,10.60
2023-04-15T17:47:12.805Z,8.07
2023-04-15T17:49:39.500Z,7.28
2023-04-15T17:52:06.361Z,8.70
2023-04-15T17:54:33.087Z,6.68
2023-04-15T17:57:00.133Z,6.88
2023-04-15T17:59:27.876Z,6.93
2023-04-15T18:01:54.820Z,9.48
2023-04-15T18:04:24.063Z,8.13
2023-04-15T18:06:52.659Z,11.50
2023-04-15T18:09:19.349Z,9.57
2023-04-15T18:11:48.273Z,10.38
2023-04-15T18:14:26.640Z,11.10
2023-04-15T18:17:00.620Z,6.80
2023-04-15T18:19:27.713Z,8.18
2023-04-15T18:21:54.403Z,8.57
2023-04-15T18:24:22.027Z,7.93
2023-04-15T18:26:49.297Z,10.20
2023-04-15T18:29:16.334Z,8.52
2023-04-15T18:31:43.102Z,8.98
2023-04-15T18:34:09.951Z,9.68
2023-04-15T18:36:36.705Z,10.48
2023-04-15T18:39:04.332Z,13.90
2023-04-15T18:41:31.265Z,6.85
2023-04-15T18:43:57.966Z,8.60
2023-04-15T18:46:24.740Z,7.97
2023-04-15T18:48:51.427Z,7.38
2023-04-15T18:51:18.092Z,6.55
2023-04-15T18:53:44.856Z,7.25
2023-04-15T18:56:11.576Z,6.10
2023-04-15T18:59:25.406Z,5.90
2023-04-15T19:01:25.024Z,5.30
2023-04-15T19:03:51.787Z,6.15
2023-04-15T19:06:18.611Z,6.07
2023-04-15T19:08:45.343Z,5.90
2023-04-15T19:11:12.039Z,5.82
2023-04-15T19:13:38.871Z,7.90
2023-04-15T19:16:05.789Z,7.00
2023-04-15T19:18:32.518Z,4.72
2023-04-15T19:20:59.215Z,3.75
2023-04-15T19:23:26.134Z,7.22
2023-04-15T19:25:52.889Z,4.07
2023-04-15T19:28:19.766Z,6.15
2023-04-15T19:30:46.593Z,5.75
2023-04-15T19:33:13.312Z,6.05
2023-04-15T19:35:42.989Z,7.70
2023-04-15T19:38:09.673Z,4.97
2023-04-15T19:40:36.365Z,6.70
2023-04-15T19:43:03.057Z,7.70
2023-04-15T19:45:31.214Z,6.13
2023-04-15T19:47:57.954Z,7.57
2023-04-15T19:50:26.413Z,6.05
2023-04-15T19:52:54.026Z,8.02
2023-04-15T19:55:20.879Z,6.55
2023-04-15T19:57:47.638Z,6.55
2023-04-15T20:00:14.498Z,6.13
2023-04-15T20:02:41.359Z,6.78
2023-04-15T20:05:09.971Z,7.50
2023-04-15T20:07:37.003Z,8.23
2023-04-15T20:10:09.624Z,7.28
2023-04-15T20:12:50.079Z,8.15
2023-04-15T20:15:19.840Z,7.13
2023-04-15T20:17:46.651Z,8.02
2023-04-15T20:20:13.441Z,8.77
2023-04-15T20:22:40.212Z,9.38
2023-04-15T20:25:07.463Z,7.18
2023-04-15T20:27:34.215Z,7.50
2023-04-15T20:30:01.132Z,12.18
2023-04-15T20:32:28.278Z,10.13
2023-04-15T20:34:55.208Z,10.82
2023-04-15T20:37:22.314Z,7.28
2023-04-15T20:39:49.280Z,7.15
2023-04-15T20:42:16.094Z,6.13
2023-04-15T20:44:42.904Z,7.50
2023-04-15T20:47:09.684Z,6.82
2023-04-15T20:49:38.180Z,6.88
2023-04-15T20:52:06.652Z,4.13
2023-04-15T20:54:33.651Z,5.40
2023-04-15T20:57:01.312Z,5.07
2023-04-15T20:59:28.068Z,3.90
2023-04-15T21:01:56.878Z,4.18
2023-04-15T21:04:24.477Z,3.90
2023-04-15T21:06:52.160Z,4.43
2023-04-15T21:09:19.041Z,3.95
2023-04-15T21:12:00.633Z,3.95
2023-04-15T21:14:28.808Z,4.45
2023-04-15T21:16:57.952Z,4.28
2023-04-15T21:19:24.792Z,5.13
2023-04-15T21:21:52.107Z,4.55
2023-04-15T21:24:18.792Z,6.22
2023-04-15T21:26:45.487Z,4.93
2023-04-15T21:29:12.414Z,6.30
2023-04-15T21:31:40.222Z,4.60
2023-04-15T21:34:06.993Z,4.32
2023-04-15T21:36:33.911Z,4.53
2023-04-15T21:39:00.957Z,5.65
2023-04-15T21:41:27.798Z,5.03
2023-04-15T21:43:54.525Z,4.03
2023-04-15T21:46:25.349Z,4.75
2023-04-15T21:48:55.378Z,3.60
2023-04-15T21:51:22.393Z,3.97
2023-04-15T21:53:49.308Z,3.55
2023-04-15T21:56:16.047Z,2.85
2023-04-15T21:58:42.970Z,3.45
2023-04-15T22:01:09.693Z,3.08
2023-04-15T22:03:36.737Z,2.72
2023-04-15T22:06:04.179Z,2.85
2023-04-15T22:08:44.590Z,2.65
2023-04-15T22:11:26.851Z,2.30
2023-04-15T22:13:54.466Z,2.00
2023-04-15T22:16:21.327Z,2.63
2023-04-15T22:18:48.173Z,1.90
2023-04-15T22:21:15.074Z,1.98
2023-04-15T22:23:42.031Z,2.40
2023-04-15T22:26:08.749Z,2.20
2023-04-15T22:28:35.511Z,2.75
2023-04-15T22:31:02.395Z,2.97
2023-04-15T22:33:29.446Z,2.50
2023-04-15T22:35:56.608Z,2.80
2023-04-15T22:38:24.111Z,2.60
2023-04-15T22:40:53.809Z,2.65
2023-04-15T22:43:20.662Z,2.85
2023-04-15T22:45:51.158Z,2.50
2023-04-15T22:48:18.684Z,2.90
2023-04-15T22:50:45.705Z,3.30
2023-04-15T22:53:12.452Z,2.90
2023-04-15T22:55:39.208Z,2.85
2023-04-15T22:58:05.899Z,3.70
2023-04-15T23:00:32.609Z,3.28
2023-04-15T23:02:59.412Z,3.40
2023-04-15T23:05:26.371Z,3.35
2023-04-15T23:07:53.110Z,3.38
2023-04-15T23:10:19.823Z,3.65
2023-04-15T23:12:46.798Z,3.42
2023-04-15T23:15:13.580Z,4.03
2023-04-15T23:17:42.549Z,3.97
2023-04-15T23:20:09.833Z,3.60
2023-04-15T23:22:37.714Z,3.90
2023-04-15T23:25:06.101Z,4.47
2023-04-15T23:27:33.052Z,2.83
2023-04-15T23:29:59.768Z,3.50
2023-04-15T23:32:27.256Z,3.75
2023-04-15T23:34:54.060Z,4.53
2023-04-15T23:37:20.882Z,2.83
2023-04-15T23:39:47.565Z,4.80
2023-04-15T23:42:14.336Z,2.40
2023-04-15T23:44:41.046Z,3.03
2023-04-15T23:47:07.783Z,2.40
2023-04-15T23:49:36.475Z,3.00
2023-04-15T23:52:03.540Z,2.83
2023-04-15T23:54:30.293Z,2.90
2023-04-15T23:56:56.971Z,3.30
2023-04-15T23:59:23.992Z,3.72
